createdAt,value
2019-04-04T00:00:04.310Z,88.21
2019-04-04T00:00:39.915Z,203.90
2019-04-04T00:01:16.923Z,197.10
2019-04-04T00:01:51.750Z,169.81
2019-04-04T00:02:27.077Z,208.17
2019-04-04T00:03:02.396Z,244.60
2019-04-04T00:03:37.903Z,255.00
2019-04-04T00:04:13.281Z,154.61
2019-04-04T00:04:48.560Z,255.00
2019-04-04T00:05:25.562Z,107.73
2019-04-04T00:05:59.606Z,113.37
2019-04-04T00:06:35.322Z,137.64
2019-04-04T00:07:10.737Z,185.91
2019-04-04T00:07:46.071Z,210.00
2019-04-04T00:08:21.172Z,209.88
2019-04-04T00:08:56.602Z,223.43
2019-04-04T00:09:33.229Z,243.16
2019-04-04T00:10:07.131Z,249.06
2019-04-04T00:10:42.628Z,210.67
2019-04-04T00:11:17.945Z,245.70
2019-04-04T00:11:53.378Z,208.00
2019-04-04T00:12:28.612Z,170.91
2019-04-04T00:13:04.215Z,119.93
2019-04-04T00:13:40.052Z,75.00
2019-04-04T00:14:15.243Z,149.47
2019-04-04T00:14:50.774Z,129.89
2019-04-04T00:15:26.179Z,255.00
2019-04-04T00:16:01.395Z,241.81
2019-04-04T00:16:36.924Z,179.32
2019-04-04T00:17:12.050Z,114.51
2019-04-04T00:17:47.473Z,213.28
2019-04-04T00:18:22.894Z,147.35
2019-04-04T00:18:59.087Z,30.00
2019-04-04T00:19:33.448Z,304.34
2019-04-04T00:20:08.845Z,247.43
2019-04-04T00:20:44.198Z,255.00
2019-04-04T00:21:19.386Z,255.00
2019-04-04T00:21:54.747Z,177.82
2019-04-04T00:22:30.266Z,114.58
2019-04-04T00:23:06.904Z,75.00
2019-04-04T00:23:41.245Z,77.66
2019-04-04T00:24:16.475Z,186.17
2019-04-04T00:24:51.985Z,115.95
2019-04-04T00:25:27.447Z,182.80
2019-04-04T00:26:02.870Z,182.31
2019-04-04T00:26:41.551Z,168.85
2019-04-04T00:27:13.893Z,248.17
2019-04-04T00:27:49.153Z,20.05
2019-04-04T00:28:24.542Z,219.42
2019-04-04T00:29:01.391Z,108.61
2019-04-04T00:29:35.244Z,87.71
2019-04-04T00:30:10.857Z,75.00
2019-04-04T00:30:48.222Z,75.00
2019-04-04T00:31:21.761Z,253.28
2019-04-04T00:31:57.168Z,251.63
2019-04-04T00:32:32.586Z,218.36
2019-04-04T00:33:07.913Z,255.00
2019-04-04T00:33:43.438Z,230.99
2019-04-04T00:34:18.830Z,209.88
2019-04-04T00:34:54.179Z,210.00
2019-04-04T00:35:30.977Z,210.00
2019-04-04T00:36:04.896Z,213.49
2019-04-04T00:36:40.219Z,234.82
2019-04-04T00:37:15.440Z,252.34
2019-04-04T00:37:50.876Z,250.12
2019-04-04T00:38:46.202Z,82.52
2019-04-04T00:39:21.386Z,133.09
2019-04-04T00:39:56.629Z,102.40
2019-04-04T00:40:31.857Z,75.72
2019-04-04T00:41:07.184Z,143.84
2019-04-04T00:41:42.971Z,180.81
2019-04-04T00:42:17.737Z,68.17
2019-04-04T00:42:53.043Z,75.00
2019-04-04T00:43:28.274Z,78.29
2019-04-04T00:44:03.587Z,255.00
2019-04-04T00:44:39.092Z,255.00
2019-04-04T00:45:14.283Z,255.00
2019-04-04T00:45:49.610Z,255.00
2019-04-04T00:46:25.305Z,69.65
2019-04-04T00:47:01.831Z,48.73
2019-04-04T00:47:36.182Z,75.00
2019-04-04T00:48:11.814Z,73.68
2019-04-04T00:48:47.205Z,67.48
2019-04-04T00:49:22.524Z,87.44
2019-04-04T00:49:57.617Z,75.00
2019-04-04T00:50:32.737Z,74.29
2019-04-04T00:51:08.576Z,112.89
2019-04-04T00:51:43.520Z,199.42
2019-04-04T00:52:18.734Z,158.24
2019-04-04T00:52:54.080Z,77.05
2019-04-04T00:53:29.469Z,77.18
2019-04-04T00:54:04.895Z,71.57
2019-04-04T00:54:40.205Z,75.00
2019-04-04T00:55:15.824Z,189.37
2019-04-04T00:55:51.124Z,252.85
2019-04-04T00:56:26.743Z,247.47
2019-04-04T00:57:01.865Z,221.81
2019-04-04T00:57:37.289Z,177.99
2019-04-04T00:58:12.793Z,211.43
2019-04-04T00:58:51.763Z,154.07
2019-04-04T00:59:23.725Z,214.36
2019-04-04T00:59:59.130Z,176.70
2019-04-04T01:00:34.418Z,173.63
2019-04-04T01:01:09.872Z,239.64
2019-04-04T01:01:45.397Z,221.04
2019-04-04T01:02:20.812Z,99.19
2019-04-04T01:02:58.270Z,227.22
2019-04-04T01:03:31.415Z,217.24
2019-04-04T01:04:06.809Z,230.62
2019-04-04T01:04:42.443Z,216.94
2019-04-04T01:05:17.579Z,221.31
2019-04-04T01:05:53.236Z,225.36
2019-04-04T01:06:28.862Z,228.59
2019-04-04T01:07:05.042Z,231.05
2019-04-04T01:07:39.303Z,216.56
2019-04-04T01:08:14.739Z,215.53
2019-04-04T01:08:50.049Z,237.12
2019-04-04T01:09:25.364Z,229.17
2019-04-04T01:10:00.845Z,71.66
2019-04-04T01:10:36.163Z,175.06
2019-04-04T01:11:11.570Z,170.98
2019-04-04T01:11:47.126Z,194.50
2019-04-04T01:12:22.634Z,239.04
2019-04-04T01:12:57.963Z,240.84
2019-04-04T01:13:33.357Z,224.93
2019-04-04T01:14:08.980Z,230.25
2019-04-04T01:14:44.405Z,146.30
2019-04-04T01:15:19.824Z,169.51
2019-04-04T01:15:55.220Z,223.45
2019-04-04T01:16:33.381Z,169.52
2019-04-04T01:17:05.905Z,210.00
2019-04-04T01:17:41.101Z,213.45
2019-04-04T01:18:16.288Z,133.69
2019-04-04T01:18:51.639Z,206.69
2019-04-04T01:19:26.844Z,204.19
2019-04-04T01:20:02.351Z,208.92
2019-04-04T01:20:37.743Z,216.44
2019-04-04T01:21:13.401Z,205.87
2019-04-04T01:21:48.936Z,215.21
2019-04-04T01:22:25.044Z,181.63
2019-04-04T01:22:59.962Z,186.60
2019-04-04T01:23:35.202Z,191.54
2019-04-04T01:24:10.730Z,140.76
2019-04-04T01:24:45.955Z,144.32
2019-04-04T01:25:21.358Z,208.39
2019-04-04T01:25:56.693Z,89.93
2019-04-04T01:26:33.126Z,58.42
2019-04-04T01:27:07.438Z,124.57
2019-04-04T01:27:42.735Z,226.73
2019-04-04T01:28:17.984Z,246.15
2019-04-04T01:28:53.379Z,63.07
2019-04-04T01:29:28.994Z,195.36
2019-04-04T01:30:04.385Z,211.24
2019-04-04T01:30:39.953Z,175.42
2019-04-04T01:31:15.519Z,205.06
2019-04-04T01:31:50.161Z,164.68
2019-04-04T01:32:25.911Z,120.88
2019-04-04T01:33:03.547Z,187.34
2019-04-04T01:33:36.665Z,228.68
2019-04-04T01:34:12.135Z,230.25
2019-04-04T01:34:47.363Z,242.49
2019-04-04T01:35:23.285Z,227.95
2019-04-04T01:35:57.989Z,209.05
2019-04-04T01:36:33.328Z,229.86
2019-04-04T01:37:08.645Z,241.60
2019-04-04T01:37:44.162Z,220.05
2019-04-04T01:38:20.086Z,218.53
2019-04-04T01:38:55.645Z,203.34
2019-04-04T01:39:31.322Z,205.67
2019-04-04T01:40:06.445Z,235.69
2019-04-04T01:40:41.961Z,225.00
2019-04-04T01:41:17.291Z,195.35
2019-04-04T01:41:52.666Z,194.30
2019-04-04T01:42:27.810Z,222.81
2019-04-04T01:43:03.318Z,208.64
2019-04-04T01:43:40.057Z,217.52
2019-04-04T01:44:14.051Z,241.68
2019-04-04T01:44:49.354Z,218.26
2019-04-04T01:45:24.740Z,243.83
2019-04-04T01:46:00.553Z,223.47
2019-04-04T01:46:35.865Z,204.58
2019-04-04T01:47:11.141Z,232.67
2019-04-04T01:47:48.096Z,228.73
2019-04-04T01:48:21.848Z,210.86
2019-04-04T01:48:57.262Z,126.28
2019-04-04T01:49:32.723Z,198.29
2019-04-04T01:50:07.910Z,237.00
2019-04-04T01:50:43.642Z,88.39
2019-04-04T01:51:19.277Z,197.80
2019-04-04T01:51:57.140Z,208.79
2019-04-04T01:52:30.281Z,238.60
2019-04-04T01:53:05.505Z,219.80
2019-04-04T01:53:40.944Z,229.01
2019-04-04T01:54:16.040Z,234.50
2019-04-04T01:54:51.718Z,227.13
2019-04-04T01:55:27.211Z,214.38
2019-04-04T01:56:05.776Z,207.86
2019-04-04T01:56:38.108Z,232.52
2019-04-04T01:57:13.314Z,231.29
2019-04-04T01:57:48.642Z,237.45
2019-04-04T01:58:23.931Z,209.76
2019-04-04T01:58:59.275Z,195.32
2019-04-04T01:59:34.563Z,267.55
2019-04-04T02:00:10.090Z,105.46
2019-04-04T02:00:46.016Z,241.60
2019-04-04T02:01:20.882Z,218.10
2019-04-04T02:01:56.103Z,72.47
2019-04-04T02:02:31.550Z,285.36
2019-04-04T02:03:06.728Z,191.41
2019-04-04T02:03:41.752Z,224.22
2019-04-04T02:04:16.948Z,205.07
2019-04-04T02:04:55.530Z,220.48
2019-04-04T02:05:28.098Z,68.52
2019-04-04T02:06:03.421Z,245.32
2019-04-04T02:06:38.940Z,224.70
2019-04-04T02:07:15.002Z,207.16
2019-04-04T02:07:50.392Z,171.26
2019-04-04T02:08:25.846Z,131.01
2019-04-04T02:09:02.537Z,62.70
2019-04-04T02:09:36.347Z,214.56
2019-04-04T02:10:11.858Z,232.70
2019-04-04T02:10:47.297Z,252.16
2019-04-04T02:11:22.703Z,246.52
2019-04-04T02:11:58.365Z,96.80
2019-04-04T02:12:33.688Z,223.99
2019-04-04T02:13:09.842Z,254.03
2019-04-04T02:13:44.742Z,149.38
2019-04-04T02:14:20.269Z,212.15
2019-04-04T02:14:55.668Z,210.37
2019-04-04T02:15:31.118Z,221.90
2019-04-04T02:16:06.619Z,239.10
2019-04-04T02:16:42.073Z,224.62
2019-04-04T02:17:17.405Z,231.74
2019-04-04T02:17:53.448Z,222.12
2019-04-04T02:18:28.217Z,233.27
2019-04-04T02:19:03.734Z,214.17
2019-04-04T02:19:39.252Z,204.19
2019-04-04T02:20:14.705Z,111.56
2019-04-04T02:20:50.116Z,73.40
2019-04-04T02:21:28.415Z,83.68
2019-04-04T02:22:00.848Z,86.73
2019-04-04T02:22:36.486Z,214.24
2019-04-04T02:23:11.878Z,193.17
2019-04-04T02:23:47.494Z,117.79
2019-04-04T02:24:22.924Z,126.24
2019-04-04T02:24:58.168Z,193.09
2019-04-04T02:25:34.203Z,108.20
2019-04-04T02:26:08.525Z,97.26
2019-04-04T02:26:43.845Z,169.37
2019-04-04T02:27:19.076Z,244.62
2019-04-04T02:27:54.599Z,215.50
2019-04-04T02:28:29.922Z,257.80
2019-04-04T02:29:05.352Z,158.35
2019-04-04T02:29:41.845Z,204.10
2019-04-04T02:30:16.476Z,197.39
2019-04-04T02:30:51.503Z,87.56
2019-04-04T02:31:26.811Z,113.02
2019-04-04T02:32:02.182Z,186.77
2019-04-04T02:32:37.479Z,242.34
2019-04-04T02:33:12.692Z,90.32
2019-04-04T02:33:47.799Z,179.41
2019-04-04T02:34:23.241Z,224.14
2019-04-04T02:34:58.536Z,35.31
2019-04-04T02:35:33.877Z,73.40
2019-04-04T02:36:09.193Z,228.44
2019-04-04T02:36:48.655Z,209.39
2019-04-04T02:37:21.240Z,222.65
2019-04-04T02:37:56.062Z,224.69
2019-04-04T02:38:30.395Z,230.22
2019-04-04T02:39:05.718Z,211.41
2019-04-04T02:39:41.398Z,213.65
2019-04-04T02:40:16.830Z,219.01
2019-04-04T02:40:52.421Z,234.04
2019-04-04T02:41:27.551Z,228.00
2019-04-04T02:42:02.789Z,233.30
2019-04-04T02:42:37.994Z,222.18
2019-04-04T02:43:13.579Z,247.93
2019-04-04T02:43:49.021Z,313.53
2019-04-04T02:44:24.416Z,196.55
2019-04-04T02:44:59.568Z,236.34
2019-04-04T02:45:35.657Z,177.74
2019-04-04T02:46:11.681Z,41.66
2019-04-04T02:46:45.786Z,231.05
2019-04-04T02:47:20.648Z,187.17
2019-04-04T02:47:56.037Z,151.76
2019-04-04T02:48:31.788Z,85.23
2019-04-04T02:49:07.206Z,118.57
2019-04-04T02:49:42.737Z,162.11
2019-04-04T02:50:18.121Z,217.17
2019-04-04T02:50:53.452Z,69.70
2019-04-04T02:51:28.755Z,99.02
2019-04-04T02:52:04.406Z,79.50
2019-04-04T02:52:40.104Z,90.12
2019-04-04T02:53:19.380Z,245.21
2019-04-04T02:53:52.973Z,74.00
2019-04-04T02:54:25.860Z,45.09
2019-04-04T02:55:01.187Z,190.35
2019-04-04T02:55:36.404Z,218.71
2019-04-04T02:56:11.340Z,220.16
2019-04-04T02:56:46.916Z,155.19
2019-04-04T02:57:22.394Z,203.75
2019-04-04T02:57:57.719Z,218.38
2019-04-04T02:58:33.227Z,248.47
2019-04-04T02:59:08.447Z,62.78
2019-04-04T02:59:43.858Z,237.93
2019-04-04T03:00:19.355Z,220.10
2019-04-04T03:00:59.225Z,214.68
2019-04-04T03:01:31.620Z,164.85
2019-04-04T03:02:05.847Z,217.23
2019-04-04T03:02:39.974Z,208.15
2019-04-04T03:03:15.364Z,165.78
2019-04-04T03:03:51.084Z,210.86
2019-04-04T03:04:26.396Z,172.26
2019-04-04T03:05:02.027Z,216.51
2019-04-04T03:05:37.626Z,210.00
2019-04-04T03:06:13.048Z,91.32
2019-04-04T03:06:48.457Z,137.27
2019-04-04T03:07:23.514Z,90.02
2019-04-04T03:08:03.107Z,231.11
2019-04-04T03:08:36.760Z,69.53
2019-04-04T03:09:10.374Z,232.52
2019-04-04T03:09:45.058Z,211.32
2019-04-04T03:10:20.162Z,39.53
2019-04-04T03:10:55.508Z,71.82
2019-04-04T03:11:30.989Z,130.26
2019-04-04T03:12:06.462Z,234.10
2019-04-04T03:12:41.738Z,263.00
2019-04-04T03:13:17.087Z,72.98
2019-04-04T03:13:52.076Z,243.60
2019-04-04T03:14:27.607Z,251.71
2019-04-04T03:15:03.109Z,127.41
2019-04-04T03:15:41.280Z,229.98
2019-04-04T03:16:13.755Z,233.64
2019-04-04T03:16:49.031Z,228.73
2019-04-04T03:17:24.325Z,232.52
2019-04-04T03:18:03.926Z,236.88
2019-04-04T03:18:37.235Z,217.53
2019-04-04T03:19:11.329Z,227.43
2019-04-04T03:19:46.701Z,203.60
2019-04-04T03:20:21.930Z,242.81
2019-04-04T03:20:57.312Z,146.81
2019-04-04T03:21:32.824Z,125.79
2019-04-04T03:22:08.129Z,82.23
2019-04-04T03:22:43.363Z,102.57
2019-04-04T03:23:18.638Z,74.31
2019-04-04T03:23:54.356Z,75.00
2019-04-04T03:24:29.442Z,148.68
2019-04-04T03:25:05.012Z,89.14
2019-04-04T03:25:40.717Z,195.10
2019-04-04T03:26:18.972Z,250.33
2019-04-04T03:26:52.764Z,236.72
2019-04-04T03:27:27.391Z,204.37
2019-04-04T03:28:02.714Z,236.36
2019-04-04T03:28:38.210Z,110.71
2019-04-04T03:29:13.339Z,241.68
2019-04-04T03:29:48.843Z,239.36
2019-04-04T03:30:24.240Z,216.29
2019-04-04T03:31:02.883Z,239.35
2019-04-04T03:31:37.300Z,224.21
2019-04-04T03:32:14.389Z,235.59
2019-04-04T03:32:51.422Z,210.91
2019-04-04T03:33:29.298Z,88.98
2019-04-04T03:33:57.870Z,244.38
2019-04-04T03:34:33.462Z,223.70
2019-04-04T03:35:08.772Z,251.63
2019-04-04T03:35:44.007Z,214.81
2019-04-04T03:36:19.287Z,213.01
2019-04-04T03:36:54.532Z,224.93
2019-04-04T03:37:29.812Z,206.66
2019-04-04T03:38:04.948Z,222.81
2019-04-04T03:38:40.430Z,224.29
2019-04-04T03:39:19.244Z,219.03
2019-04-04T03:39:53.129Z,223.54
2019-04-04T03:40:26.492Z,219.86
2019-04-04T03:41:01.785Z,216.97
2019-04-04T03:41:36.964Z,259.54
2019-04-04T03:42:12.248Z,240.11
2019-04-04T03:42:47.765Z,234.61
2019-04-04T03:43:22.862Z,278.33
2019-04-04T03:43:58.299Z,166.25
2019-04-04T03:44:33.304Z,53.86
2019-04-04T03:45:08.924Z,232.53
2019-04-04T03:45:44.453Z,193.30
2019-04-04T03:46:19.795Z,162.92
2019-04-04T03:46:55.126Z,195.10
2019-04-04T03:47:30.289Z,210.00
2019-04-04T03:48:05.788Z,189.56
2019-04-04T03:48:41.507Z,210.51
2019-04-04T03:49:16.699Z,226.93
2019-04-04T03:49:56.354Z,207.17
2019-04-04T03:50:30.262Z,215.66
2019-04-04T03:51:04.727Z,123.23
2019-04-04T03:51:58.258Z,110.37
2019-04-04T03:52:33.882Z,77.86
2019-04-04T03:53:09.291Z,104.14
2019-04-04T03:53:48.722Z,89.40
2019-04-04T03:54:22.586Z,96.17
2019-04-04T03:54:56.292Z,128.78
2019-04-04T03:55:30.680Z,242.05
2019-04-04T03:56:06.013Z,208.52
2019-04-04T03:56:41.208Z,204.92
2019-04-04T03:57:16.645Z,163.85
2019-04-04T03:57:54.339Z,199.03
2019-04-04T03:58:27.873Z,195.97
2019-04-04T03:59:02.070Z,185.49
2019-04-04T03:59:37.479Z,75.00
2019-04-04T04:00:12.669Z,75.00
2019-04-04T04:00:48.170Z,75.00
2019-04-04T04:01:23.514Z,75.00
2019-04-04T04:01:58.550Z,84.03
2019-04-04T04:02:33.949Z,110.35
2019-04-04T04:03:09.585Z,186.81
2019-04-04T04:03:44.776Z,109.39
2019-04-04T04:04:20.139Z,194.56
2019-04-04T04:05:00.355Z,259.71
2019-04-04T04:05:34.200Z,223.59
2019-04-04T04:06:09.006Z,216.96
2019-04-04T04:06:42.288Z,219.03
2019-04-04T04:07:17.122Z,216.18
2019-04-04T04:07:52.740Z,87.58
2019-04-04T04:08:28.047Z,192.02
2019-04-04T04:09:03.082Z,220.82
2019-04-04T04:09:38.293Z,210.00
2019-04-04T04:10:13.410Z,224.43
2019-04-04T04:10:48.915Z,239.10
2019-04-04T04:11:24.276Z,262.11
2019-04-04T04:11:59.480Z,230.77
2019-04-04T04:12:34.847Z,247.63
2019-04-04T04:13:10.053Z,223.35
2019-04-04T04:13:48.958Z,209.67
2019-04-04T04:14:22.123Z,213.69
2019-04-04T04:14:56.159Z,210.29
2019-04-04T04:15:31.619Z,212.15
2019-04-04T04:16:06.712Z,219.03
2019-04-04T04:16:42.435Z,203.79
2019-04-04T04:17:17.885Z,210.59
2019-04-04T04:17:53.215Z,231.26
2019-04-04T04:18:28.620Z,220.19
2019-04-04T04:19:04.040Z,245.45
2019-04-04T04:19:39.657Z,187.07
2019-04-04T04:20:15.054Z,185.83
2019-04-04T04:20:50.392Z,223.30
2019-04-04T04:21:25.792Z,225.91
2019-04-04T04:22:01.034Z,223.13
2019-04-04T04:22:36.259Z,147.67
2019-04-04T04:23:11.482Z,241.22
2019-04-04T04:23:49.636Z,61.10
2019-04-04T04:24:22.524Z,156.68
2019-04-04T04:25:02.130Z,197.13
2019-04-04T04:25:35.758Z,204.60
2019-04-04T04:26:09.660Z,240.85
2019-04-04T04:26:44.210Z,228.17
2019-04-04T04:27:19.744Z,237.09
2019-04-04T04:27:54.999Z,229.81
2019-04-04T04:28:30.656Z,216.03
2019-04-04T04:29:06.298Z,206.99
2019-04-04T04:29:41.489Z,184.02
2019-04-04T04:30:16.825Z,212.93
2019-04-04T04:30:52.118Z,226.64
2019-04-04T04:31:27.539Z,237.49
2019-04-04T04:32:03.172Z,198.98
2019-04-04T04:32:38.823Z,222.99
2019-04-04T04:33:14.518Z,210.00
2019-04-04T04:33:50.259Z,203.25
2019-04-04T04:34:25.748Z,118.68
2019-04-04T04:35:01.276Z,81.97
2019-04-04T04:35:40.825Z,211.32
2019-04-04T04:36:15.276Z,210.00
2019-04-04T04:36:47.969Z,210.00
2019-04-04T04:37:22.553Z,214.35
2019-04-04T04:37:57.850Z,236.32
2019-04-04T04:38:33.381Z,239.35
2019-04-04T04:39:08.495Z,229.47
2019-04-04T04:39:44.029Z,221.82
2019-04-04T04:40:19.420Z,222.73
2019-04-04T04:40:54.751Z,219.50
2019-04-04T04:41:30.136Z,225.92
2019-04-04T04:42:05.379Z,220.42
2019-04-04T04:42:40.694Z,224.75
2019-04-04T04:43:16.037Z,266.55
2019-04-04T04:43:51.160Z,210.25
2019-04-04T04:44:26.533Z,254.31
2019-04-04T04:45:02.123Z,233.27
2019-04-04T04:45:37.497Z,210.00
2019-04-04T04:46:16.937Z,214.03
2019-04-04T04:46:50.368Z,248.86
2019-04-04T04:47:24.072Z,234.80
2019-04-04T04:47:58.826Z,255.00
2019-04-04T04:48:34.125Z,255.00
2019-04-04T04:49:09.383Z,255.00
2019-04-04T04:49:44.842Z,239.36
2019-04-04T04:50:20.213Z,210.00
2019-04-04T04:50:55.518Z,221.35
2019-04-04T04:51:31.152Z,219.03
2019-04-04T04:52:06.350Z,210.00
2019-04-04T04:52:41.513Z,215.59
2019-04-04T04:53:18.758Z,222.28
2019-04-04T04:53:52.272Z,209.88
2019-04-04T04:54:27.350Z,213.41
2019-04-04T04:55:03.334Z,220.57
2019-04-04T04:55:38.536Z,239.35
2019-04-04T04:56:13.861Z,218.26
2019-04-04T04:56:48.949Z,219.64
2019-04-04T04:57:29.952Z,229.47
2019-04-04T04:57:59.702Z,211.97
2019-04-04T04:58:35.045Z,231.26
2019-04-04T04:59:11.122Z,224.75
2019-04-04T04:59:45.953Z,211.29
2019-04-04T05:00:21.131Z,215.59
2019-04-04T05:00:56.559Z,216.94
2019-04-04T05:01:32.174Z,229.28
2019-04-04T05:02:07.627Z,248.13
2019-04-04T05:02:43.123Z,215.08
2019-04-04T05:03:18.569Z,208.44
2019-04-04T05:03:54.225Z,216.27
2019-04-04T05:04:29.128Z,254.31
2019-04-04T05:05:04.519Z,210.00
2019-04-04T05:05:40.121Z,209.39
2019-04-04T05:06:15.334Z,210.00
2019-04-04T05:06:50.853Z,210.00
2019-04-04T05:07:26.325Z,216.83
2019-04-04T05:08:01.530Z,255.00
2019-04-04T05:08:37.241Z,255.00
2019-04-04T05:09:14.121Z,255.00
2019-04-04T05:09:48.071Z,255.00
2019-04-04T05:10:23.637Z,255.00
2019-04-04T05:10:58.815Z,255.00
2019-04-04T05:11:34.259Z,255.00
2019-04-04T05:12:09.567Z,255.00
2019-04-04T05:12:44.786Z,255.00
2019-04-04T05:13:20.078Z,255.00
2019-04-04T05:13:56.095Z,255.00
2019-04-04T05:14:31.010Z,255.00
2019-04-04T05:15:06.439Z,255.00
2019-04-04T05:15:41.549Z,255.00
2019-04-04T05:16:16.772Z,255.00
2019-04-04T05:16:52.167Z,255.00
2019-04-04T05:17:48.382Z,255.00
2019-04-04T05:18:23.773Z,72.34
2019-04-04T05:18:59.005Z,75.00
2019-04-04T05:19:34.174Z,75.00
2019-04-04T05:20:09.618Z,75.00
2019-04-04T05:20:45.005Z,75.00
2019-04-04T05:21:25.471Z,75.00
2019-04-04T05:21:55.426Z,75.00
2019-04-04T05:22:30.667Z,75.00
2019-04-04T05:23:05.768Z,75.00
2019-04-04T05:23:41.138Z,75.00
2019-04-04T05:24:17.969Z,75.00
2019-04-04T05:25:07.060Z,75.00
2019-04-04T05:25:27.151Z,75.00
2019-04-04T05:26:03.251Z,75.00
2019-04-04T05:26:38.724Z,75.00
2019-04-04T05:27:13.635Z,75.00
2019-04-04T05:27:48.807Z,75.00
2019-04-04T05:28:24.136Z,75.00
2019-04-04T05:28:59.434Z,75.00
2019-04-04T05:29:34.884Z,75.00
2019-04-04T05:30:11.513Z,75.00
2019-04-04T05:30:47.790Z,75.00
2019-04-04T05:31:22.420Z,75.00
2019-04-04T05:31:57.770Z,75.00
2019-04-04T05:32:33.051Z,75.00
2019-04-04T05:33:08.660Z,75.00
2019-04-04T05:33:43.782Z,75.00
2019-04-04T05:34:19.104Z,75.00
2019-04-04T05:34:54.281Z,75.00
2019-04-04T05:35:33.058Z,75.00
2019-04-04T05:36:05.317Z,75.00
2019-04-04T05:36:40.570Z,75.00
2019-04-04T05:37:15.915Z,75.00
2019-04-04T05:37:51.030Z,75.00
2019-04-04T05:38:26.408Z,75.00
2019-04-04T05:39:01.734Z,75.00
2019-04-04T05:39:37.050Z,66.01
2019-04-04T05:40:12.372Z,37.17
2019-04-04T05:40:47.852Z,75.00
2019-04-04T05:41:25.077Z,75.00
2019-04-04T05:42:00.279Z,75.00
2019-04-04T05:42:33.921Z,91.28
2019-04-04T05:43:09.111Z,243.81
2019-04-04T05:43:44.769Z,205.43
2019-04-04T05:44:20.060Z,217.59
2019-04-04T05:44:55.374Z,219.68
2019-04-04T05:45:30.876Z,233.27
2019-04-04T05:46:06.083Z,222.56
2019-04-04T05:46:41.393Z,235.57
2019-04-04T05:47:17.051Z,255.00
2019-04-04T05:47:55.140Z,190.94
2019-04-04T05:48:29.101Z,67.44
2019-04-04T05:49:07.878Z,93.15
2019-04-04T05:49:38.868Z,102.72
2019-04-04T05:50:16.282Z,211.30
2019-04-04T05:50:49.159Z,201.15
2019-04-04T05:51:24.484Z,49.34
2019-04-04T05:51:59.686Z,215.07
2019-04-04T05:52:34.938Z,176.04
2019-04-04T05:53:10.108Z,75.00
2019-04-04T05:53:45.297Z,57.37
2019-04-04T05:54:20.736Z,333.61
2019-04-04T05:54:56.198Z,282.22
2019-04-04T05:55:31.337Z,30.00
2019-04-04T05:56:06.758Z,274.83
2019-04-04T05:56:44.347Z,74.07
2019-04-04T05:57:19.748Z,75.00
2019-04-04T05:57:52.734Z,75.00
2019-04-04T05:58:28.226Z,75.00
2019-04-04T05:59:03.857Z,75.00
2019-04-04T05:59:42.131Z,75.00
2019-04-04T06:00:14.775Z,75.00
2019-04-04T06:00:50.387Z,75.00
2019-04-04T06:01:25.795Z,79.18
2019-04-04T06:02:01.286Z,67.44
2019-04-04T06:02:36.546Z,75.72
2019-04-04T06:03:14.849Z,64.55
2019-04-04T06:03:47.981Z,75.00
2019-04-04T06:04:23.134Z,78.41
2019-04-04T06:04:58.570Z,63.86
2019-04-04T06:05:34.153Z,38.26
2019-04-04T06:06:10.634Z,62.34
2019-04-04T06:06:44.893Z,75.77
2019-04-04T06:07:20.336Z,107.15
2019-04-04T06:07:55.638Z,38.76
2019-04-04T06:08:31.390Z,49.39
2019-04-04T06:09:06.985Z,75.00
2019-04-04T06:09:45.931Z,75.00
2019-04-04T06:10:18.591Z,75.00
2019-04-04T06:10:53.191Z,75.00
2019-04-04T06:11:28.395Z,75.00
2019-04-04T06:12:03.743Z,74.31
2019-04-04T06:12:39.451Z,255.00
2019-04-04T06:13:14.808Z,255.00
2019-04-04T06:13:50.097Z,255.00
2019-04-04T06:14:25.630Z,255.00
2019-04-04T06:15:01.175Z,255.00
2019-04-04T06:15:36.373Z,255.00
2019-04-04T06:16:11.567Z,255.00
2019-04-04T06:16:46.902Z,255.00
2019-04-04T06:17:22.292Z,255.00
2019-04-04T06:17:57.624Z,255.00
2019-04-04T06:18:32.880Z,255.00
2019-04-04T06:19:08.126Z,255.00
2019-04-04T06:19:44.690Z,121.32
2019-04-04T06:20:18.662Z,120.00
2019-04-04T06:20:54.258Z,120.00
2019-04-04T06:21:29.477Z,120.00
2019-04-04T06:22:05.201Z,120.00
2019-04-04T06:22:40.333Z,286.67
2019-04-04T06:23:15.696Z,255.00
2019-04-04T06:23:51.207Z,255.00
2019-04-04T06:24:27.264Z,255.00
2019-04-04T06:25:01.917Z,255.00
2019-04-04T06:25:37.112Z,255.00
2019-04-04T06:26:12.745Z,255.00
2019-04-04T06:26:48.268Z,255.00
2019-04-04T06:27:23.592Z,255.00
2019-04-04T06:27:58.898Z,255.00
2019-04-04T06:28:34.747Z,255.00
2019-04-04T06:29:09.842Z,255.00
2019-04-04T06:29:47.598Z,255.00
2019-04-04T06:30:20.770Z,255.00
2019-04-04T06:30:56.100Z,255.00
2019-04-04T06:31:31.286Z,255.00
2019-04-04T06:32:06.812Z,255.00
2019-04-04T06:32:42.320Z,255.00
2019-04-04T06:33:17.578Z,255.00
2019-04-04T06:33:52.877Z,255.00
2019-04-04T06:34:28.409Z,255.00
2019-04-04T06:35:03.808Z,255.00
2019-04-04T06:35:39.977Z,255.00
2019-04-04T06:36:17.572Z,255.00
2019-04-04T06:36:50.304Z,287.35
2019-04-04T06:37:25.392Z,300.00
2019-04-04T06:38:00.520Z,300.00
2019-04-04T06:38:35.841Z,300.00
2019-04-04T06:39:11.155Z,300.00
2019-04-04T06:39:46.567Z,38.93
2019-04-04T06:40:22.010Z,75.00
2019-04-04T06:40:58.843Z,73.97
2019-04-04T06:41:33.048Z,72.34
2019-04-04T06:42:11.161Z,72.34
2019-04-04T06:42:43.577Z,71.63
2019-04-04T06:43:18.712Z,72.34
2019-04-04T06:43:54.251Z,62.35
2019-04-04T06:44:29.837Z,75.00
2019-04-04T06:45:05.087Z,93.68
2019-04-04T06:45:40.373Z,113.86
2019-04-04T06:46:18.928Z,75.03
2019-04-04T06:46:53.183Z,64.69
2019-04-04T06:47:26.430Z,47.18
2019-04-04T06:48:01.737Z,75.00
2019-04-04T06:48:37.529Z,128.02
2019-04-04T06:49:13.117Z,80.95
2019-04-04T06:49:48.843Z,101.76
2019-04-04T06:50:23.939Z,203.54
2019-04-04T06:50:59.477Z,94.47
2019-04-04T06:51:35.175Z,120.00
2019-04-04T06:52:10.398Z,120.00
2019-04-04T06:52:45.493Z,85.65
2019-04-04T06:53:22.261Z,38.88
2019-04-04T06:53:59.347Z,75.00
2019-04-04T06:54:32.019Z,75.00
2019-04-04T06:55:07.493Z,213.41
2019-04-04T06:55:42.719Z,210.00
2019-04-04T06:56:18.190Z,210.00
2019-04-04T06:56:53.639Z,209.88
2019-04-04T06:57:29.139Z,210.00
2019-04-04T06:58:08.209Z,210.00
2019-04-04T06:58:40.750Z,209.88
2019-04-04T06:59:15.637Z,209.39
2019-04-04T06:59:51.312Z,210.00
2019-04-04T07:00:26.198Z,210.00
2019-04-04T07:01:01.733Z,210.00
2019-04-04T07:01:37.268Z,209.88
2019-04-04T07:02:12.478Z,210.00
2019-04-04T07:02:48.003Z,210.00
2019-04-04T07:03:26.897Z,210.00
2019-04-04T07:03:59.452Z,209.88
2019-04-04T07:04:36.007Z,210.00
2019-04-04T07:05:10.594Z,210.00
2019-04-04T07:05:45.028Z,221.95
2019-04-04T07:06:20.263Z,214.03
2019-04-04T07:06:55.665Z,216.83
2019-04-04T07:07:31.110Z,255.00
2019-04-04T07:08:06.316Z,255.00
2019-04-04T07:08:41.572Z,214.03
2019-04-04T07:09:19.110Z,214.03
2019-04-04T07:09:52.332Z,210.00
2019-04-04T07:10:27.840Z,216.18
2019-04-04T07:11:04.451Z,251.38
2019-04-04T07:11:38.561Z,249.58
2019-04-04T07:12:21.173Z,270.84
2019-04-04T07:12:49.080Z,277.04
2019-04-04T07:13:27.089Z,249.61
2019-04-04T07:13:59.744Z,238.01
2019-04-04T07:14:45.205Z,243.06
2019-04-04T07:15:12.455Z,236.22
2019-04-04T07:15:48.396Z,235.57
2019-04-04T07:16:21.033Z,242.70
2019-04-04T07:16:56.485Z,235.14
2019-04-04T07:17:31.502Z,240.87
2019-04-04T07:18:06.946Z,244.55
2019-04-04T07:18:43.016Z,219.16
2019-04-04T07:19:17.604Z,248.56
2019-04-04T07:19:53.097Z,269.08
2019-04-04T07:20:28.696Z,231.32
2019-04-04T07:21:03.793Z,223.52
2019-04-04T07:21:38.954Z,234.59
2019-04-04T07:22:14.343Z,234.83
2019-04-04T07:22:49.982Z,241.20
2019-04-04T07:23:27.654Z,239.96
2019-04-04T07:24:00.865Z,255.00
2019-04-04T07:24:36.039Z,252.90
2019-04-04T07:25:11.581Z,229.57